Time;durP1;ratioP1;P1;durP2;ratioP2;P2;SDS_P1;SDS_P2;PMS_P1;PMS_P2;Temp;Humidity;BMP_temperature;BMP_pressure;BME280_temperature;BME280_humidity;BME280_pressure;Samples;Min_cycle;Max_cycle;Signal;HPM_P1;HPM_P2
2020/12/19 00:01:33;;;;;;;14.23;11.25;;;8.00;91.50;;;;;;5055207;28;20033;-90
2020/12/19 00:03:59;;;;;;;13.45;9.40;;;8.00;91.70;;;;;;5050963;28;20470;-89
2020/12/19 00:06:25;;;;;;;15.43;10.95;;;8.00;91.50;;;;;;5038161;28;20025;-89
2020/12/19 00:08:51;;;;;;;15.00;9.40;;;8.00;91.60;;;;;;5018443;28;20394;-89
2020/12/19 00:11:17;;;;;;;15.38;9.52;;;8.00;91.60;;;;;;5050789;28;20025;-89
2020/12/19 00:13:44;;;;;;;14.02;10.60;;;8.00;91.60;;;;;;5054780;28;20024;-89
2020/12/19 00:16:17;;;;;;;15.90;10.55;;;8.00;91.60;;;;;;5054569;28;20025;-89
2020/12/19 00:18:44;;;;;;;14.60;10.27;;;8.10;91.50;;;;;;5054700;28;20058;-90
2020/12/19 00:21:10;;;;;;;15.68;10.93;;;8.00;91.50;;;;;;5034696;28;20083;-90
2020/12/19 00:23:36;;;;;;;16.25;11.13;;;8.00;91.50;;;;;;5053842;28;20017;-90
2020/12/19 00:26:02;;;;;;;16.05;10.98;;;8.00;91.60;;;;;;5041787;23;20087;-89
2020/12/19 00:28:27;;;;;;;17.40;10.43;;;8.00;91.60;;;;;;5035303;28;20453;-90
2020/12/19 00:30:54;;;;;;;14.95;10.38;;;8.00;91.60;;;;;;5037821;28;20032;-90
2020/12/19 00:33:20;;;;;;;16.25;11.40;;;8.00;91.60;;;;;;5058099;28;20059;-90
2020/12/19 00:35:45;;;;;;;18.75;11.02;;;8.00;91.60;;;;;;5058290;28;20512;-90
2020/12/19 00:38:11;;;;;;;15.00;10.35;;;8.00;91.60;;;;;;5041276;28;20025;-90
2020/12/19 00:40:36;;;;;;;18.67;12.57;;;8.00;91.60;;;;;;5039938;28;20429;-90
2020/12/19 00:43:02;;;;;;;16.60;12.20;;;8.00;91.70;;;;;;5040975;28;20025;-90
2020/12/19 00:45:29;;;;;;;13.93;10.27;;;7.90;91.60;;;;;;5041268;28;20029;-90
2020/12/19 00:47:55;;;;;;;15.30;10.55;;;8.00;91.70;;;;;;5041753;28;20024;-90
2020/12/19 00:50:20;;;;;;;18.13;11.95;;;8.00;91.70;;;;;;5058147;28;20054;-90
2020/12/19 00:52:46;;;;;;;15.05;10.95;;;8.00;91.60;;;;;;5040214;28;20705;-90
2020/12/19 00:55:12;;;;;;;15.52;10.68;;;7.90;91.70;;;;;;5041197;28;20046;-90
2020/12/19 00:57:38;;;;;;;14.70;9.98;;;8.00;91.60;;;;;;5041112;28;20028;-90
2020/12/19 01:00:08;;;;;;;13.40;9.95;;;8.00;91.70;;;;;;5040975;28;20056;-90
2020/12/19 01:02:38;;;;;;;16.95;12.38;;;8.00;91.70;;;;;;5041535;28;20049;-90
2020/12/19 01:05:06;;;;;;;16.17;10.60;;;8.00;91.60;;;;;;5057432;28;20382;-90
2020/12/19 01:07:32;;;;;;;20.08;13.35;;;8.00;91.60;;;;;;5057389;28;20454;-90
2020/12/19 01:09:58;;;;;;;16.52;12.23;;;7.90;91.60;;;;;;5020808;28;20117;-91
2020/12/19 01:12:24;;;;;;;16.77;11.60;;;7.80;91.80;;;;;;5048171;28;20111;-90
2020/12/19 01:14:50;;;;;;;14.98;11.32;;;7.80;91.80;;;;;;5057451;28;20042;-90
2020/12/19 01:17:16;;;;;;;15.48;11.90;;;7.80;91.80;;;;;;5040714;28;20552;-90
2020/12/19 01:19:41;;;;;;;17.90;11.77;;;7.80;92.10;;;;;;5039997;28;20059;-90
2020/12/19 01:22:07;;;;;;;18.83;13.13;;;7.90;91.70;;;;;;5040676;28;20112;-90
2020/12/19 01:24:34;;;;;;;20.20;13.60;;;7.80;91.70;;;;;;5024872;28;20402;-90
2020/12/19 01:27:00;;;;;;;19.88;13.07;;;7.80;92.00;;;;;;5054138;28;20021;-90
2020/12/19 01:29:25;;;;;;;19.65;12.73;;;7.80;91.80;;;;;;5056946;28;20054;-90
2020/12/19 01:31:54;;;;;;;20.33;13.55;;;7.70;91.90;;;;;;5039530;28;20029;-90
2020/12/19 01:34:20;;;;;;;17.50;12.68;;;7.70;91.90;;;;;;5053915;28;20047;-90
2020/12/19 01:36:46;;;;;;;18.55;12.30;;;7.70;91.90;;;;;;5056748;28;20120;-91
2020/12/19 01:39:12;;;;;;;21.10;13.52;;;7.70;91.90;;;;;;5056869;28;20028;-90
2020/12/19 01:41:37;;;;;;;19.55;13.07;;;7.80;91.90;;;;;;5036974;28;20039;-90
2020/12/19 01:44:05;;;;;;;18.98;12.43;;;7.70;91.90;;;;;;5054579;28;20132;-90
2020/12/19 01:46:56;;;;;;;17.50;12.45;;;7.70;92.00;;;;;;5073422;28;20020;-90
2020/12/19 01:49:24;;;;;;;19.48;13.30;;;7.70;92.00;;;;;;5056684;28;20036;-90
2020/12/19 01:51:53;;;;;;;19.20;13.10;;;7.70;92.10;;;;;;5053497;28;20108;-90
2020/12/19 01:54:21;;;;;;;24.25;15.13;;;7.70;92.10;;;;;;5069585;28;20028;-89
2020/12/19 01:56:54;;;;;;;18.02;13.07;;;7.70;92.20;;;;;;5069660;28;20031;-89
2020/12/19 01:59:22;;;;;;;22.90;15.20;;;7.60;92.20;;;;;;5072935;28;20024;-89
2020/12/19 02:01:49;;;;;;;20.58;13.75;;;7.60;92.30;;;;;;5023404;28;20123;-89
2020/12/19 02:04:16;;;;;;;18.25;13.15;;;7.60;92.40;;;;;;5056558;28;20028;-88
2020/12/19 02:06:45;;;;;;;18.08;12.55;;;7.60;92.30;;;;;;5053107;28;20025;-89
2020/12/19 02:09:12;;;;;;;19.42;13.57;;;7.60;92.40;;;;;;5067609;28;20036;-89
2020/12/19 02:11:37;;;;;;;15.75;10.88;;;7.60;92.20;;;;;;5056580;28;20036;-89
2020/12/19 02:14:07;;;;;;;18.63;13.07;;;7.70;92.30;;;;;;5065734;28;20032;-89
2020/12/19 02:16:34;;;;;;;20.75;13.73;;;7.60;92.20;;;;;;5039210;28;20075;-89
2020/12/19 02:18:59;;;;;;;20.65;13.82;;;7.60;92.20;;;;;;5064378;28;20035;-89
2020/12/19 02:21:25;;;;;;;17.92;12.38;;;7.60;92.20;;;;;;5056121;28;20385;-89
2020/12/19 02:23:51;;;;;;;17.42;12.52;;;7.60;92.20;;;;;;5055915;28;20056;-89
2020/12/19 02:26:16;;;;;;;20.52;12.93;;;7.70;92.20;;;;;;5039756;28;20059;-89
2020/12/19 02:28:42;;;;;;;17.90;13.20;;;7.60;92.20;;;;;;5056056;28;20454;-89
2020/12/19 02:31:08;;;;;;;19.83;12.43;;;7.60;92.20;;;;;;5019418;28;20044;-89
2020/12/19 02:33:33;;;;;;;19.10;12.77;;;7.60;92.30;;;;;;5053794;28;20031;-89
2020/12/19 02:35:59;;;;;;;19.38;12.48;;;7.60;92.20;;;;;;5040211;28;20496;-89
2020/12/19 02:38:25;;;;;;;19.25;12.57;;;7.60;92.20;;;;;;5039389;28;20020;-89
2020/12/19 02:40:50;;;;;;;20.55;12.23;;;7.60;92.20;;;;;;5039848;28;20420;-89
2020/12/19 02:43:16;;;;;;;20.52;14.25;;;7.60;92.30;;;;;;5040055;28;20032;-90
2020/12/19 02:45:42;;;;;;;20.63;13.75;;;7.60;92.30;;;;;;5039782;28;20028;-89
2020/12/19 02:48:07;;;;;;;18.08;12.90;;;7.60;92.30;;;;;;5039145;28;20553;-89
2020/12/19 02:50:33;;;;;;;19.25;12.80;;;7.60;92.30;;;;;;5022360;28;20053;-89
2020/12/19 02:52:58;;;;;;;19.13;13.05;;;7.60;92.30;;;;;;5055514;28;20024;-90
2020/12/19 02:55:24;;;;;;;18.55;12.63;;;7.60;92.30;;;;;;5038507;28;20074;-89
2020/12/19 02:57:50;;;;;;;18.85;12.80;;;7.50;92.30;;;;;;5022418;28;20036;-90
2020/12/19 03:00:15;;;;;;;19.38;13.05;;;7.60;92.40;;;;;;5038628;28;20033;-89
2020/12/19 03:02:41;;;;;;;18.75;12.45;;;7.50;92.40;;;;;;5038571;28;20373;-89
2020/12/19 03:05:07;;;;;;;21.20;14.25;;;7.50;92.40;;;;;;5038860;28;20048;-89
2020/12/19 03:07:32;;;;;;;23.77;14.95;;;7.50;92.40;;;;;;5055163;28;20120;-90
2020/12/19 03:09:58;;;;;;;21.25;13.30;;;7.50;92.40;;;;;;5055514;28;20032;-89
2020/12/19 03:12:24;;;;;;;20.05;13.50;;;7.50;92.50;;;;;;5022606;28;20029;-89
2020/12/19 03:14:49;;;;;;;24.90;15.60;;;7.50;92.50;;;;;;5022120;28;20031;-89
2020/12/19 03:17:15;;;;;;;24.27;15.43;;;7.50;92.60;;;;;;5038975;28;20336;-90
2020/12/19 03:19:40;;;;;;;21.60;15.27;;;7.50;92.50;;;;;;5038822;28;20074;-89
2020/12/19 03:22:06;;;;;;;25.67;15.57;;;7.50;92.60;;;;;;5055292;28;20052;-90
2020/12/19 03:24:32;;;;;;;21.13;14.15;;;7.50;92.60;;;;;;5039380;28;20056;-90
2020/12/19 03:26:57;;;;;;;19.85;13.35;;;7.50;92.60;;;;;;5055163;28;20092;-90
2020/12/19 03:29:23;;;;;;;19.67;13.27;;;7.40;92.70;;;;;;5051644;28;20028;-89
2020/12/19 03:31:49;;;;;;;17.90;12.50;;;7.40;92.60;;;;;;5038666;28;20032;-90
2020/12/19 03:34:14;;;;;;;23.33;15.00;;;7.40;92.60;;;;;;5041796;28;20430;-90
2020/12/19 03:36:40;;;;;;;22.92;15.10;;;7.40;92.60;;;;;;5058445;28;20028;-89
2020/12/19 03:39:06;;;;;;;25.90;15.68;;;7.50;92.60;;;;;;5038426;28;20024;-90
2020/12/19 03:41:31;;;;;;;22.05;14.32;;;7.50;92.70;;;;;;5058187;28;20078;-89
2020/12/19 03:43:57;;;;;;;20.77;13.65;;;7.40;92.60;;;;;;5041727;28;20035;-90
2020/12/19 03:46:22;;;;;;;24.58;15.40;;;7.50;92.70;;;;;;5058572;28;20033;-90
2020/12/19 03:48:48;;;;;;;20.85;14.10;;;7.50;92.60;;;;;;5038353;28;20113;-89
2020/12/19 03:51:14;;;;;;;18.48;13.30;;;7.40;92.70;;;;;;5038467;28;20412;-89
2020/12/19 03:53:39;;;;;;;22.15;13.48;;;7.40;92.70;;;;;;5055292;28;20515;-90
2020/12/19 03:56:07;;;;;;;20.58;13.68;;;7.50;92.70;;;;;;5038380;28;20032;-89
2020/12/19 03:58:33;;;;;;;19.17;12.70;;;7.40;92.70;;;;;;5069680;28;20031;-90
2020/12/19 04:00:58;;;;;;;19.58;13.45;;;7.50;92.70;;;;;;5037799;28;20040;-90
2020/12/19 04:03:24;;;;;;;21.05;13.75;;;7.50;92.60;;;;;;5031657;28;20039;-90
2020/12/19 04:05:49;;;;;;;20.30;13.23;;;7.40;92.60;;;;;;5057438;28;20036;-90
2020/12/19 04:08:15;;;;;;;18.13;13.02;;;7.40;92.70;;;;;;5042473;28;20542;-90
2020/12/19 04:10:41;;;;;;;20.35;13.82;;;7.40;92.70;;;;;;5041581;28;20381;-90
2020/12/19 04:13:06;;;;;;;17.65;11.80;;;7.40;92.60;;;;;;5054553;28;20036;-90
2020/12/19 04:15:32;;;;;;;20.00;12.38;;;7.40;92.60;;;;;;5041663;28;20060;-90
2020/12/19 04:17:58;;;;;;;19.33;12.52;;;7.40;92.60;;;;;;5045142;28;20447;-90
2020/12/19 04:20:23;;;;;;;18.60;13.00;;;7.40;92.60;;;;;;5044884;28;20097;-90
2020/12/19 04:22:49;;;;;;;24.55;14.45;;;7.50;92.60;;;;;;5053384;28;20393;-90
2020/12/19 04:25:14;;;;;;;18.55;12.25;;;7.40;92.60;;;;;;5025794;28;20397;-90
2020/12/19 04:27:41;;;;;;;18.77;11.88;;;7.40;92.70;;;;;;5041597;28;20102;-90
2020/12/19 04:30:08;;;;;;;20.33;12.70;;;7.40;92.60;;;;;;5058266;28;20024;-90
2020/12/19 04:32:35;;;;;;;17.30;11.70;;;7.40;92.60;;;;;;5057951;28;20028;-90
2020/12/19 04:35:01;;;;;;;17.70;11.98;;;7.40;92.60;;;;;;5065668;28;20031;-90
2020/12/19 04:37:26;;;;;;;18.30;11.77;;;7.50;92.70;;;;;;5025081;28;20021;-89
2020/12/19 04:39:52;;;;;;;17.23;11.48;;;7.40;92.60;;;;;;5043230;28;20059;-90
2020/12/19 04:42:21;;;;;;;17.63;11.70;;;7.40;92.60;;;;;;5041332;28;20473;-89
2020/12/19 04:44:47;;;;;;;16.13;10.57;;;7.40;92.60;;;;;;5057997;28;20474;-90
2020/12/19 04:47:13;;;;;;;18.77;12.57;;;7.40;92.60;;;;;;5057514;28;20016;-90
2020/12/19 04:49:44;;;;;;;19.02;12.20;;;7.40;92.60;;;;;;5057728;28;20028;-89
2020/12/19 04:52:11;;;;;;;16.45;11.20;;;7.40;92.60;;;;;;5041236;28;20029;-90
2020/12/19 04:54:37;;;;;;;17.48;11.93;;;7.40;92.60;;;;;;5071687;28;20025;-90
2020/12/19 04:57:03;;;;;;;16.67;10.85;;;7.40;92.60;;;;;;5057602;28;20120;-90
2020/12/19 04:59:29;;;;;;;17.15;11.15;;;7.40;92.60;;;;;;5040885;28;20351;-90
2020/12/19 05:01:55;;;;;;;18.83;11.52;;;7.40;92.60;;;;;;5041150;28;20054;-90
2020/12/19 05:04:21;;;;;;;19.17;12.48;;;7.40;92.50;;;;;;5040973;28;20033;-90
2020/12/19 05:06:47;;;;;;;20.77;11.68;;;7.40;92.60;;;;;;5057349;28;20047;-90
2020/12/19 05:09:12;;;;;;;15.30;10.68;;;7.40;92.60;;;;;;5040912;28;20044;-89
2020/12/19 05:11:38;;;;;;;16.63;10.48;;;7.40;92.60;;;;;;5040955;28;20031;-89
2020/12/19 05:14:07;;;;;;;16.98;10.00;;;7.40;92.60;;;;;;5075226;28;20012;-90
2020/12/19 05:16:34;;;;;;;17.60;11.68;;;7.40;92.60;;;;;;5040750;28;20037;-90
2020/12/19 05:19:09;;;;;;;19.95;13.07;;;7.40;92.60;;;;;;5041759;28;20049;-89
2020/12/19 05:21:43;;;;;;;24.27;14.55;;;7.40;92.60;;;;;;5051976;28;20032;-89
2020/12/19 05:24:11;;;;;;;24.85;14.88;;;7.40;92.60;;;;;;5056692;28;20028;-90
2020/12/19 05:26:38;;;;;;;18.77;13.07;;;7.30;92.60;;;;;;5067806;28;20041;-89
2020/12/19 05:29:04;;;;;;;16.30;11.52;;;7.40;92.70;;;;;;5077134;28;20027;-89
2020/12/19 05:31:33;;;;;;;18.25;11.80;;;7.30;92.70;;;;;;5050994;28;20027;-90
2020/12/19 05:33:59;;;;;;;19.25;12.85;;;7.40;92.70;;;;;;5077061;28;20073;-90
2020/12/19 05:36:28;;;;;;;17.92;12.10;;;7.30;92.60;;;;;;5061562;28;20032;-90
2020/12/19 05:39:00;;;;;;;19.10;12.30;;;7.40;92.70;;;;;;5060698;28;20044;-90
2020/12/19 05:41:26;;;;;;;16.17;10.68;;;7.30;92.70;;;;;;5095801;28;20027;-90
2020/12/19 05:43:52;;;;;;;15.60;10.50;;;7.30;92.70;;;;;;5078319;28;20477;-89
2020/12/19 05:46:31;;;;;;;15.10;9.70;;;7.30;92.70;;;;;;5075007;28;20020;-90
2020/12/19 05:48:58;;;;;;;15.80;9.98;;;7.40;92.70;;;;;;5076936;28;20354;-90
2020/12/19 05:51:29;;;;;;;14.05;9.55;;;7.40;92.70;;;;;;5043836;28;20028;-90
2020/12/19 05:54:01;;;;;;;16.63;10.73;;;7.40;92.70;;;;;;5076826;28;20016;-90
2020/12/19 05:56:27;;;;;;;15.68;10.43;;;7.30;92.60;;;;;;5062686;28;20029;-90
2020/12/19 05:58:53;;;;;;;15.75;10.25;;;7.40;92.60;;;;;;5046242;28;20377;-90
2020/12/19 06:01:20;;;;;;;14.48;10.02;;;7.40;92.60;;;;;;5043521;28;20024;-90
2020/12/19 06:03:48;;;;;;;16.05;12.00;;;7.40;92.60;;;;;;5056244;28;20047;-90
2020/12/19 06:06:15;;;;;;;17.70;11.88;;;7.30;92.50;;;;;;5076309;28;20598;-90
2020/12/19 06:08:42;;;;;;;16.33;10.45;;;7.30;92.60;;;;;;5076208;28;20035;-90
2020/12/19 06:11:15;;;;;;;16.55;10.85;;;7.30;92.70;;;;;;5060013;28;20081;-91
2020/12/19 06:13:55;;;;;;;17.83;11.73;;;7.30;92.60;;;;;;5074200;28;20382;-91
2020/12/19 06:16:22;;;;;;;15.15;10.00;;;7.30;92.90;;;;;;5082322;28;20118;-90
2020/12/19 06:18:47;;;;;;;17.20;11.35;;;7.30;92.70;;;;;;5059638;28;20055;-90
2020/12/19 06:21:14;;;;;;;19.17;12.40;;;7.30;92.70;;;;;;5076350;28;20113;-91
2020/12/19 06:23:40;;;;;;;16.52;11.25;;;7.30;92.70;;;;;;5075901;28;20039;-90
2020/12/19 06:26:07;;;;;;;16.50;10.80;;;7.20;92.70;;;;;;5079519;23;20040;-88
2020/12/19 06:28:42;;;;;;;14.35;9.60;;;7.30;92.80;;;;;;5059654;28;20028;-88
2020/12/19 06:31:12;;;;;;;19.85;11.98;;;7.30;92.80;;;;;;5095836;28;20024;-88
2020/12/19 06:33:40;;;;;;;15.45;10.95;;;7.20;92.70;;;;;;5085101;28;20024;-88
2020/12/19 06:36:30;;;;;;;16.08;10.35;;;7.20;92.80;;;;;;5094978;28;20023;-88
2020/12/19 06:38:58;;;;;;;17.33;10.98;;;7.20;92.70;;;;;;5096831;28;20020;-88
2020/12/19 06:41:43;;;;;;;21.25;13.65;;;7.20;92.80;;;;;;5075064;28;20016;-88
2020/12/19 06:44:14;;;;;;;19.30;11.90;;;7.10;92.80;;;;;;5089508;28;20031;-88
2020/12/19 06:46:40;;;;;;;19.77;11.73;;;7.20;93.00;;;;;;5108740;28;20168;-88
2020/12/19 06:49:35;;;;;;;18.02;11.63;;;7.10;93.00;;;;;;5076328;28;20028;-88
2020/12/19 06:52:06;;;;;;;20.23;13.70;;;7.10;93.00;;;;;;5073319;28;20043;-88
2020/12/19 06:54:39;;;;;;;20.63;12.52;;;7.10;92.90;;;;;;5109370;28;20172;-89
2020/12/19 06:57:06;;;;;;;17.77;12.00;;;7.10;93.00;;;;;;5096519;28;20024;-88
2020/12/19 06:59:34;;;;;;;19.83;12.85;;;7.10;93.00;;;;;;5059423;28;20020;-88
2020/12/19 07:02:25;;;;;;;19.02;11.82;;;7.10;92.90;;;;;;5083150;28;20073;-89
2020/12/19 07:04:52;;;;;;;21.20;13.00;;;7.10;93.00;;;;;;5080311;28;20054;-88
2020/12/19 07:07:25;;;;;;;17.40;10.95;;;7.20;92.90;;;;;;5067234;28;20023;-88
2020/12/19 07:09:58;;;;;;;19.92;11.73;;;7.10;92.90;;;;;;5062071;28;20027;-88
2020/12/19 07:12:32;;;;;;;19.63;11.73;;;7.10;92.90;;;;;;5102032;28;20019;-88
2020/12/19 07:14:58;;;;;;;16.77;11.43;;;7.10;92.90;;;;;;5079491;28;20452;-88
2020/12/19 07:17:24;;;;;;;18.70;12.38;;;7.10;92.90;;;;;;5096511;28;20016;-88
2020/12/19 07:19:59;;;;;;;15.73;10.70;;;7.10;92.80;;;;;;5096041;28;20151;-88
2020/12/19 07:22:24;;;;;;;16.80;10.35;;;7.10;92.90;;;;;;5075801;28;20118;-88
2020/12/19 07:24:52;;;;;;;18.70;12.20;;;7.10;92.90;;;;;;5042643;28;20453;-88
2020/12/19 07:27:18;;;;;;;17.33;10.75;;;7.10;92.80;;;;;;5076106;28;20012;-88
2020/12/19 07:29:44;;;;;;;17.95;11.52;;;7.10;92.80;;;;;;5051189;28;20078;-88
2020/12/19 07:32:10;;;;;;;17.65;10.68;;;7.20;92.80;;;;;;5063208;28;20515;-88
2020/12/19 07:34:36;;;;;;;18.45;12.07;;;7.20;92.90;;;;;;5080540;28;20411;-88
2020/12/19 07:37:02;;;;;;;18.70;11.73;;;7.10;92.80;;;;;;5065424;28;20042;-88
2020/12/19 07:39:28;;;;;;;17.50;11.77;;;7.10;92.90;;;;;;5065910;28;20027;-88
2020/12/19 07:42:01;;;;;;;19.85;12.50;;;7.10;92.90;;;;;;5083074;28;20354;-89
2020/12/19 07:44:27;;;;;;;19.98;12.25;;;7.10;92.90;;;;;;5085916;28;20039;-88
2020/12/19 07:47:10;;;;;;;19.67;11.57;;;7.10;92.90;;;;;;5076323;28;20013;-89
2020/12/19 07:49:42;;;;;;;17.77;11.48;;;7.10;92.90;;;;;;5089743;28;20032;-88
2020/12/19 07:52:15;;;;;;;18.25;12.10;;;7.10;92.90;;;;;;5099201;28;20019;-88
2020/12/19 07:54:49;;;;;;;20.10;12.38;;;7.10;92.90;;;;;;5115083;28;20115;-88
2020/12/19 07:57:16;;;;;;;16.13;11.23;;;7.10;92.90;;;;;;5102263;28;20336;-88
2020/12/19 07:59:42;;;;;;;18.15;12.32;;;7.10;92.90;;;;;;5065994;28;20024;-88
2020/12/19 08:02:10;;;;;;;20.63;13.38;;;7.10;92.90;;;;;;5083214;28;20393;-89
2020/12/19 08:04:36;;;;;;;20.33;13.52;;;7.10;93.00;;;;;;5100814;28;20019;-88
2020/12/19 08:07:02;;;;;;;17.48;12.00;;;7.10;93.00;;;;;;5066386;28;20365;-88
2020/12/19 08:09:28;;;;;;;19.08;11.32;;;7.10;93.10;;;;;;5088499;28;20055;-87
2020/12/19 08:11:58;;;;;;;20.10;13.52;;;7.10;93.20;;;;;;5064611;28;20102;-88
2020/12/19 08:14:24;;;;;;;18.40;12.07;;;7.10;93.20;;;;;;5063683;28;20544;-88
2020/12/19 08:16:51;;;;;;;19.50;13.88;;;7.10;93.20;;;;;;5080669;28;20035;-88
2020/12/19 08:19:38;;;;;;;20.50;13.85;;;7.10;93.40;;;;;;5054907;28;20035;-88
2020/12/19 08:22:06;;;;;;;22.75;14.50;;;7.10;93.60;;;;;;5085112;28;20028;-88
2020/12/19 08:24:32;;;;;;;22.75;14.60;;;7.10;93.60;;;;;;5098999;28;20058;-88
2020/12/19 08:27:26;;;;;;;21.05;13.93;;;7.20;93.70;;;;;;5080104;28;20531;-88
2020/12/19 08:30:05;;;;;;;18.95;12.27;;;7.20;93.80;;;;;;5106427;28;20024;-88
2020/12/19 08:32:31;;;;;;;21.23;13.32;;;7.20;93.80;;;;;;5105099;28;20028;-88
2020/12/19 08:34:58;;;;;;;21.67;13.57;;;7.20;93.90;;;;;;5090140;28;20020;-88
2020/12/19 08:37:24;;;;;;;20.25;13.77;;;7.20;94.00;;;;;;5067860;28;20127;-88
2020/12/19 08:40:04;;;;;;;22.70;14.48;;;7.30;94.00;;;;;;5101154;28;20058;-87
2020/12/19 08:42:35;;;;;;;20.40;12.88;;;7.30;94.20;;;;;;5078865;28;20123;-88
2020/12/19 08:45:14;;;;;;;21.23;13.52;;;7.30;94.30;;;;;;5078925;28;20085;-87
2020/12/19 08:47:41;;;;;;;17.92;12.23;;;7.40;94.40;;;;;;5089616;28;20028;-87
2020/12/19 08:50:07;;;;;;;21.27;13.63;;;7.40;94.30;;;;;;5065058;28;20039;-87
2020/12/19 08:52:32;;;;;;;21.00;14.40;;;7.50;94.40;;;;;;5078578;28;20469;-88
2020/12/19 08:54:59;;;;;;;20.35;13.88;;;7.50;94.50;;;;;;5080777;28;20028;-88
2020/12/19 08:57:30;;;;;;;18.85;13.07;;;7.60;94.50;;;;;;5098996;28;20083;-86
2020/12/19 09:00:14;;;;;;;22.58;13.65;;;7.60;94.60;;;;;;5095790;28;20031;-88
2020/12/19 09:09:44;;;;;;;20.85;13.90;;;7.70;94.60;;;;;;5108842;28;20031;-87
2020/12/19 09:12:12;;;;;;;17.55;12.52;;;7.70;94.70;;;;;;5082396;28;20035;-88
2020/12/19 09:14:48;;;;;;;21.15;14.63;;;7.80;94.60;;;;;;5086535;28;20020;-88
2020/12/19 09:17:27;;;;;;;23.65;15.15;;;7.90;94.60;;;;;;5078575;28;20013;-88
2020/12/19 09:20:04;;;;;;;19.60;13.45;;;8.00;94.60;;;;;;5078974;28;20016;-87
2020/12/19 09:22:33;;;;;;;19.08;11.98;;;8.00;94.60;;;;;;5085226;28;20128;-88
2020/12/19 09:25:04;;;;;;;20.15;13.45;;;8.10;94.50;;;;;;5097622;28;20554;-88
2020/12/19 09:27:29;;;;;;;18.63;13.52;;;8.20;94.50;;;;;;5081947;28;20110;-88
2020/12/19 09:29:55;;;;;;;17.27;13.13;;;8.20;94.40;;;;;;5061269;28;20062;-87
2020/12/19 09:32:20;;;;;;;23.70;13.80;;;8.20;94.50;;;;;;5075815;28;20023;-87
2020/12/19 09:34:46;;;;;;;19.30;13.10;;;8.30;94.50;;;;;;5071596;28;20373;-88
2020/12/19 09:37:12;;;;;;;19.50;12.95;;;8.40;94.50;;;;;;5065154;28;20030;-87
2020/12/19 09:39:49;;;;;;;19.35;13.02;;;8.40;94.50;;;;;;5077896;28;20034;-88
2020/12/19 09:42:17;;;;;;;18.50;12.57;;;8.50;94.40;;;;;;5083414;28;20034;-87
2020/12/19 09:44:45;;;;;;;18.60;11.95;;;8.60;94.40;;;;;;5077900;28;20465;-87
2020/12/19 09:47:11;;;;;;;20.42;13.35;;;8.60;94.40;;;;;;5075348;28;20481;-87
2020/12/19 09:49:37;;;;;;;18.02;12.27;;;8.70;94.30;;;;;;5065110;28;20021;-88
2020/12/19 09:52:03;;;;;;;18.48;11.68;;;8.80;94.50;;;;;;5054054;28;20020;-92
2020/12/19 09:54:28;;;;;;;16.15;11.38;;;8.80;94.20;;;;;;5078972;28;20020;-87
2020/12/19 09:56:54;;;;;;;17.17;12.73;;;8.90;94.10;;;;;;5074300;28;20031;-88
2020/12/19 09:59:21;;;;;;;17.67;11.38;;;9.00;94.10;;;;;;5082142;28;20031;-88
2020/12/19 10:01:47;;;;;;;17.67;12.20;;;9.00;94.00;;;;;;5075723;28;20024;-88
2020/12/19 10:04:12;;;;;;;17.67;11.43;;;9.10;94.00;;;;;;5043025;28;20473;-87
2020/12/19 10:06:40;;;;;;;19.33;12.13;;;9.20;94.00;;;;;;5076643;28;20470;-86
2020/12/19 10:09:08;;;;;;;16.20;11.40;;;9.20;94.00;;;;;;5079879;28;20144;-86
2020/12/19 10:11:34;;;;;;;17.65;12.13;;;9.30;93.90;;;;;;5072813;28;20028;-88
2020/12/19 10:14:00;;;;;;;16.95;11.43;;;9.30;93.80;;;;;;5076270;28;20135;-87
2020/12/19 10:16:28;;;;;;;16.17;11.63;;;9.40;93.70;;;;;;5089429;28;20027;-87
2020/12/19 10:18:53;;;;;;;15.55;11.10;;;9.50;93.50;;;;;;5096595;28;20388;-87
2020/12/19 10:21:19;;;;;;;18.40;11.70;;;9.50;93.30;;;;;;5065493;28;20042;-86
2020/12/19 10:23:45;;;;;;;13.55;10.30;;;9.50;93.30;;;;;;5062558;28;20023;-87
2020/12/19 10:26:10;;;;;;;16.38;11.40;;;9.60;93.40;;;;;;5059102;28;20044;-87
2020/12/19 10:28:37;;;;;;;15.35;11.02;;;9.60;93.30;;;;;;5079514;28;20426;-87
2020/12/19 10:31:03;;;;;;;14.10;10.20;;;9.70;93.30;;;;;;5075561;28;20094;-88
2020/12/19 10:33:29;;;;;;;15.50;11.25;;;9.70;93.10;;;;;;5043428;28;20016;-88
2020/12/19 10:35:55;;;;;;;18.23;11.05;;;9.70;93.20;;;;;;5060403;28;20028;-90
2020/12/19 10:38:21;;;;;;;14.48;10.25;;;9.80;93.00;;;;;;5062796;28;20036;-88
2020/12/19 10:40:47;;;;;;;15.63;11.10;;;9.80;92.90;;;;;;5064188;28;20027;-89
2020/12/19 10:43:12;;;;;;;14.40;10.60;;;9.90;92.80;;;;;;5079551;28;20066;-89
2020/12/19 10:45:38;;;;;;;12.85;8.95;;;9.90;92.90;;;;;;5079210;28;20026;-88
2020/12/19 10:48:04;;;;;;;17.92;10.52;;;9.90;92.80;;;;;;5059512;28;20032;-88
2020/12/19 10:50:29;;;;;;;14.20;9.30;;;10.00;92.70;;;;;;5059010;28;20040;-86
2020/12/19 10:52:55;;;;;;;16.13;9.95;;;9.90;92.70;;;;;;5077278;28;20379;-86
2020/12/19 10:55:20;;;;;;;16.63;9.98;;;10.00;92.70;;;;;;5066095;28;20024;-86
2020/12/19 10:57:46;;;;;;;15.10;10.38;;;10.00;92.70;;;;;;5058435;28;20021;-86
2020/12/19 11:00:12;;;;;;;20.40;11.77;;;10.00;92.60;;;;;;5059055;28;20036;-88
2020/12/19 11:02:38;;;;;;;15.23;9.90;;;10.10;92.60;;;;;;5043771;28;20024;-87
2020/12/19 11:05:03;;;;;;;15.25;10.20;;;10.10;92.70;;;;;;5060183;28;20032;-87
2020/12/19 11:07:38;;;;;;;13.13;9.85;;;10.20;92.60;;;;;;5097053;28;20457;-87
2020/12/19 11:10:04;;;;;;;15.52;10.43;;;10.10;92.40;;;;;;5082578;28;20052;-86
2020/12/19 11:12:30;;;;;;;15.85;10.27;;;10.20;92.50;;;;;;5080344;28;20024;-87
2020/12/19 11:14:55;;;;;;;15.90;10.27;;;10.20;92.50;;;;;;5061747;28;20043;-86
2020/12/19 11:17:21;;;;;;;12.90;9.52;;;10.30;92.40;;;;;;5078865;28;20059;-88
2020/12/19 11:19:47;;;;;;;14.52;9.68;;;10.30;92.30;;;;;;5058873;28;20024;-90
2020/12/19 11:22:12;;;;;;;15.73;10.10;;;10.30;92.20;;;;;;5072962;28;20039;-88
2020/12/19 11:24:38;;;;;;;13.88;8.90;;;10.30;92.20;;;;;;5058424;28;20081;-87
2020/12/19 11:27:04;;;;;;;14.15;9.13;;;10.40;92.10;;;;;;5066724;28;20044;-87
2020/12/19 11:29:29;;;;;;;15.18;9.25;;;10.40;92.20;;;;;;5060380;28;20046;-89
2020/12/19 11:31:55;;;;;;;14.18;8.95;;;10.40;92.10;;;;;;5075476;28;20070;-88
2020/12/19 11:34:21;;;;;;;11.88;9.18;;;10.50;92.10;;;;;;5072860;28;20036;-89
2020/12/19 11:36:47;;;;;;;13.82;9.57;;;10.50;92.00;;;;;;5058687;28;20029;-89
2020/12/19 11:39:14;;;;;;;11.88;8.70;;;10.60;92.10;;;;;;5078469;28;20479;-89
2020/12/19 11:41:40;;;;;;;14.57;9.25;;;10.70;92.20;;;;;;5088408;28;20123;-87
2020/12/19 11:44:07;;;;;;;11.30;7.55;;;10.70;92.10;;;;;;5092990;28;20473;-89
2020/12/19 11:46:33;;;;;;;10.65;7.43;;;10.80;92.10;;;;;;5089235;28;20030;-89
2020/12/19 11:48:59;;;;;;;11.73;7.47;;;10.80;91.70;;;;;;5074822;28;20020;-88
2020/12/19 11:51:34;;;;;;;10.50;7.47;;;10.90;91.80;;;;;;5058773;28;20028;-89
2020/12/19 11:54:01;;;;;;;12.52;7.32;;;11.00;91.50;;;;;;5074767;28;20058;-88
2020/12/19 11:56:28;;;;;;;12.02;6.75;;;11.10;91.40;;;;;;5058239;28;20028;-87
2020/12/19 11:58:54;;;;;;;10.88;7.13;;;11.10;91.30;;;;;;5075596;28;20024;-87
2020/12/19 12:01:25;;;;;;;11.05;6.75;;;11.20;91.10;;;;;;5090881;28;20115;-87
2020/12/19 12:03:51;;;;;;;11.57;7.00;;;11.20;90.80;;;;;;5096650;28;20028;-87
2020/12/19 12:06:16;;;;;;;9.10;6.32;;;11.30;90.90;;;;;;5096129;28;20031;-87
2020/12/19 12:08:42;;;;;;;9.57;6.40;;;11.40;90.90;;;;;;5044211;28;20488;-88
2020/12/19 12:11:08;;;;;;;8.70;5.85;;;11.50;90.70;;;;;;5067780;28;20043;-89
2020/12/19 12:13:34;;;;;;;11.00;6.55;;;11.60;90.60;;;;;;5058367;28;20043;-88
2020/12/19 12:16:00;;;;;;;9.40;6.10;;;11.70;90.30;;;;;;5058535;28;20028;-90
2020/12/19 12:18:25;;;;;;;10.52;6.00;;;11.70;90.10;;;;;;5060803;28;20028;-89
2020/12/19 12:20:52;;;;;;;9.23;5.95;;;11.70;89.70;;;;;;5066863;28;20035;-89
2020/12/19 12:23:17;;;;;;;11.20;6.57;;;11.70;89.80;;;;;;5095299;28;20783;-90
2020/12/19 12:25:43;;;;;;;12.30;6.60;;;11.70;89.70;;;;;;5081047;23;20459;-88
2020/12/19 12:28:09;;;;;;;17.63;7.30;;;11.70;90.00;;;;;;5059677;28;20025;-87
2020/12/19 12:30:34;;;;;;;10.88;6.55;;;11.60;89.40;;;;;;5062003;28;20024;-87
2020/12/19 12:33:00;;;;;;;11.27;6.45;;;11.70;89.80;;;;;;5064790;28;20140;-87
2020/12/19 12:35:26;;;;;;;11.52;6.70;;;11.70;89.80;;;;;;5074103;28;20063;-88
2020/12/19 12:37:51;;;;;;;12.40;7.00;;;11.60;89.90;;;;;;5050301;28;20032;-89
2020/12/19 12:40:17;;;;;;;10.73;6.75;;;11.70;89.90;;;;;;5075219;28;20078;-89
2020/12/19 12:42:43;;;;;;;9.90;6.47;;;11.70;89.90;;;;;;5084412;28;20016;-90
2020/12/19 12:45:08;;;;;;;14.25;6.78;;;11.60;90.00;;;;;;5043940;28;20064;-91
2020/12/19 12:47:34;;;;;;;11.50;6.75;;;11.60;90.10;;;;;;5061625;28;20024;-91